sensor_id;sensor_type;location;lat;lon;timestamp;P1;durP1;ratioP1;P2;durP2;ratioP2
19679;SDS011;9989;48.962;9.182;2023-12-07T00:01:47;22.60;;;14.17;;
19679;SDS011;9989;48.962;9.182;2023-12-07T00:04:13;23.57;;;13.03;;
19679;SDS011;9989;48.962;9.182;2023-12-07T00:06:38;22.03;;;13.77;;
19679;SDS011;9989;48.962;9.182;2023-12-07T00:09:04;22.30;;;13.67;;
19679;SDS011;9989;48.962;9.182;2023-12-07T00:11:29;22.43;;;13.73;;
19679;SDS011;9989;48.962;9.182;2023-12-07T00:13:55;22.87;;;13.40;;
19679;SDS011;9989;48.962;9.182;2023-12-07T00:16:21;20.37;;;12.70;;
19679;SDS011;9989;48.962;9.182;2023-12-07T00:18:46;23.30;;;14.33;;
19679;SDS011;9989;48.962;9.182;2023-12-07T00:21:12;22.47;;;13.10;;
19679;SDS011;9989;48.962;9.182;2023-12-07T00:23:37;21.23;;;12.70;;
19679;SDS011;9989;48.962;9.182;2023-12-07T00:26:03;21.70;;;12.60;;
19679;SDS011;9989;48.962;9.182;2023-12-07T00:28:29;22.33;;;13.67;;
19679;SDS011;9989;48.962;9.182;2023-12-07T00:30:55;23.63;;;13.33;;
19679;SDS011;9989;48.962;9.182;2023-12-07T00:33:20;23.40;;;13.13;;
19679;SDS011;9989;48.962;9.182;2023-12-07T00:35:46;23.27;;;13.00;;
19679;SDS011;9989;48.962;9.182;2023-12-07T00:38:12;21.53;;;12.43;;
19679;SDS011;9989;48.962;9.182;2023-12-07T00:40:38;22.57;;;13.53;;
19679;SDS011;9989;48.962;9.182;2023-12-07T00:43:05;22.00;;;12.33;;
19679;SDS011;9989;48.962;9.182;2023-12-07T00:45:31;21.67;;;13.30;;
19679;SDS011;9989;48.962;9.182;2023-12-07T00:47:56;22.97;;;13.43;;
19679;SDS011;9989;48.962;9.182;2023-12-07T00:50:22;24.43;;;12.77;;
19679;SDS011;9989;48.962;9.182;2023-12-07T00:52:47;21.37;;;12.03;;
19679;SDS011;9989;48.962;9.182;2023-12-07T00:55:13;24.03;;;14.00;;
19679;SDS011;9989;48.962;9.182;2023-12-07T00:57:39;22.17;;;13.07;;
19679;SDS011;9989;48.962;9.182;2023-12-07T01:00:05;23.63;;;13.70;;
19679;SDS011;9989;48.962;9.182;2023-12-07T01:02:31;22.87;;;14.07;;
19679;SDS011;9989;48.962;9.182;2023-12-07T01:04:57;24.20;;;13.50;;
19679;SDS011;9989;48.962;9.182;2023-12-07T01:07:22;22.73;;;13.17;;
19679;SDS011;9989;48.962;9.182;2023-12-07T01:09:48;22.57;;;13.80;;
19679;SDS011;9989;48.962;9.182;2023-12-07T01:12:14;21.83;;;12.47;;
19679;SDS011;9989;48.962;9.182;2023-12-07T01:14:39;22.17;;;12.93;;
19679;SDS011;9989;48.962;9.182;2023-12-07T01:17:05;22.13;;;13.07;;
19679;SDS011;9989;48.962;9.182;2023-12-07T01:19:30;22.27;;;12.60;;
19679;SDS011;9989;48.962;9.182;2023-12-07T01:21:56;25.37;;;13.80;;
19679;SDS011;9989;48.962;9.182;2023-12-07T01:24:21;21.77;;;12.23;;
19679;SDS011;9989;48.962;9.182;2023-12-07T01:26:47;23.50;;;13.67;;
19679;SDS011;9989;48.962;9.182;2023-12-07T01:29:13;24.10;;;13.53;;
19679;SDS011;9989;48.962;9.182;2023-12-07T01:31:43;21.97;;;12.70;;
19679;SDS011;9989;48.962;9.182;2023-12-07T01:34:08;24.23;;;13.43;;
19679;SDS011;9989;48.962;9.182;2023-12-07T01:36:34;22.63;;;13.30;;
19679;SDS011;9989;48.962;9.182;2023-12-07T01:39:00;22.97;;;13.27;;
19679;SDS011;9989;48.962;9.182;2023-12-07T01:41:25;22.47;;;12.63;;
19679;SDS011;9989;48.962;9.182;2023-12-07T01:43:51;25.93;;;14.07;;
19679;SDS011;9989;48.962;9.182;2023-12-07T01:46:17;23.77;;;13.50;;
19679;SDS011;9989;48.962;9.182;2023-12-07T01:48:43;21.93;;;13.47;;
19679;SDS011;9989;48.962;9.182;2023-12-07T01:51:09;20.47;;;11.33;;
19679;SDS011;9989;48.962;9.182;2023-12-07T01:53:36;23.37;;;12.47;;
19679;SDS011;9989;48.962;9.182;2023-12-07T01:56:04;21.73;;;12.90;;
19679;SDS011;9989;48.962;9.182;2023-12-07T01:58:29;22.17;;;13.57;;
19679;SDS011;9989;48.962;9.182;2023-12-07T02:00:56;20.23;;;12.20;;
19679;SDS011;9989;48.962;9.182;2023-12-07T02:03:21;21.67;;;12.80;;
19679;SDS011;9989;48.962;9.182;2023-12-07T02:05:48;21.63;;;12.03;;
19679;SDS011;9989;48.962;9.182;2023-12-07T02:08:14;26.27;;;14.67;;
19679;SDS011;9989;48.962;9.182;2023-12-07T02:10:40;23.90;;;13.50;;
19679;SDS011;9989;48.962;9.182;2023-12-07T02:13:06;22.70;;;12.50;;
19679;SDS011;9989;48.962;9.182;2023-12-07T02:15:32;23.07;;;13.53;;
19679;SDS011;9989;48.962;9.182;2023-12-07T02:18:14;21.67;;;12.57;;
19679;SDS011;9989;48.962;9.182;2023-12-07T02:23:28;21.93;;;13.10;;
19679;SDS011;9989;48.962;9.182;2023-12-07T02:25:56;23.03;;;13.37;;
19679;SDS011;9989;48.962;9.182;2023-12-07T02:28:28;23.57;;;13.53;;
19679;SDS011;9989;48.962;9.182;2023-12-07T02:30:53;22.33;;;12.70;;
19679;SDS011;9989;48.962;9.182;2023-12-07T02:33:19;24.37;;;13.83;;
19679;SDS011;9989;48.962;9.182;2023-12-07T02:35:45;21.60;;;12.50;;
19679;SDS011;9989;48.962;9.182;2023-12-07T02:38:10;22.63;;;12.67;;
19679;SDS011;9989;48.962;9.182;2023-12-07T02:40:37;21.97;;;11.70;;
19679;SDS011;9989;48.962;9.182;2023-12-07T02:43:04;20.70;;;12.77;;
19679;SDS011;9989;48.962;9.182;2023-12-07T02:45:30;24.23;;;13.40;;
19679;SDS011;9989;48.962;9.182;2023-12-07T02:47:57;21.90;;;12.20;;
19679;SDS011;9989;48.962;9.182;2023-12-07T02:50:23;22.17;;;12.23;;
19679;SDS011;9989;48.962;9.182;2023-12-07T02:52:49;23.30;;;13.00;;
19679;SDS011;9989;48.962;9.182;2023-12-07T02:55:15;25.43;;;14.23;;
19679;SDS011;9989;48.962;9.182;2023-12-07T02:57:40;20.47;;;12.97;;
19679;SDS011;9989;48.962;9.182;2023-12-07T03:00:06;21.77;;;13.60;;
19679;SDS011;9989;48.962;9.182;2023-12-07T03:02:35;23.70;;;12.93;;
19679;SDS011;9989;48.962;9.182;2023-12-07T03:05:02;23.30;;;13.67;;
19679;SDS011;9989;48.962;9.182;2023-12-07T03:07:28;20.23;;;13.17;;
19679;SDS011;9989;48.962;9.182;2023-12-07T03:09:54;21.43;;;12.27;;
19679;SDS011;9989;48.962;9.182;2023-12-07T03:12:19;21.07;;;13.17;;
19679;SDS011;9989;48.962;9.182;2023-12-07T03:14:45;21.57;;;12.23;;
19679;SDS011;9989;48.962;9.182;2023-12-07T03:17:10;24.37;;;11.90;;
19679;SDS011;9989;48.962;9.182;2023-12-07T03:19:39;22.43;;;12.67;;
19679;SDS011;9989;48.962;9.182;2023-12-07T03:22:06;21.77;;;12.37;;
19679;SDS011;9989;48.962;9.182;2023-12-07T03:24:32;21.10;;;12.20;;
19679;SDS011;9989;48.962;9.182;2023-12-07T03:26:59;22.97;;;12.60;;
19679;SDS011;9989;48.962;9.182;2023-12-07T03:29:24;19.83;;;11.87;;
19679;SDS011;9989;48.962;9.182;2023-12-07T03:31:50;21.60;;;12.73;;
19679;SDS011;9989;48.962;9.182;2023-12-07T03:34:15;19.10;;;11.20;;
19679;SDS011;9989;48.962;9.182;2023-12-07T03:36:42;22.80;;;13.10;;
19679;SDS011;9989;48.962;9.182;2023-12-07T03:39:16;22.27;;;12.33;;
19679;SDS011;9989;48.962;9.182;2023-12-07T03:41:50;21.23;;;11.50;;
19679;SDS011;9989;48.962;9.182;2023-12-07T03:44:15;19.93;;;12.10;;
19679;SDS011;9989;48.962;9.182;2023-12-07T03:46:41;22.77;;;12.40;;
19679;SDS011;9989;48.962;9.182;2023-12-07T03:49:06;21.40;;;12.23;;
19679;SDS011;9989;48.962;9.182;2023-12-07T03:51:32;23.27;;;12.37;;
19679;SDS011;9989;48.962;9.182;2023-12-07T03:53:58;20.80;;;11.70;;
19679;SDS011;9989;48.962;9.182;2023-12-07T03:56:24;19.53;;;11.10;;
19679;SDS011;9989;48.962;9.182;2023-12-07T03:58:50;22.47;;;11.77;;
19679;SDS011;9989;48.962;9.182;2023-12-07T04:01:16;21.83;;;11.77;;
19679;SDS011;9989;48.962;9.182;2023-12-07T04:03:42;22.33;;;12.97;;
19679;SDS011;9989;48.962;9.182;2023-12-07T04:06:07;21.97;;;12.93;;
19679;SDS011;9989;48.962;9.182;2023-12-07T04:08:34;25.00;;;12.97;;
19679;SDS011;9989;48.962;9.182;2023-12-07T04:10:59;23.37;;;12.90;;
19679;SDS011;9989;48.962;9.182;2023-12-07T04:13:25;22.87;;;12.57;;
19679;SDS011;9989;48.962;9.182;2023-12-07T04:15:50;24.70;;;12.33;;
19679;SDS011;9989;48.962;9.182;2023-12-07T04:18:16;19.83;;;11.90;;
19679;SDS011;9989;48.962;9.182;2023-12-07T04:20:42;20.30;;;11.80;;
19679;SDS011;9989;48.962;9.182;2023-12-07T04:23:08;19.77;;;11.80;;
19679;SDS011;9989;48.962;9.182;2023-12-07T04:25:33;20.40;;;12.13;;
19679;SDS011;9989;48.962;9.182;2023-12-07T04:27:59;22.17;;;12.20;;
19679;SDS011;9989;48.962;9.182;2023-12-07T04:30:24;22.73;;;11.90;;
19679;SDS011;9989;48.962;9.182;2023-12-07T04:32:50;22.57;;;12.43;;
19679;SDS011;9989;48.962;9.182;2023-12-07T04:35:16;21.30;;;12.47;;
19679;SDS011;9989;48.962;9.182;2023-12-07T04:37:41;21.50;;;12.70;;
19679;SDS011;9989;48.962;9.182;2023-12-07T04:40:07;21.60;;;12.70;;
19679;SDS011;9989;48.962;9.182;2023-12-07T04:42:33;20.90;;;12.57;;
19679;SDS011;9989;48.962;9.182;2023-12-07T04:44:58;23.27;;;13.13;;
19679;SDS011;9989;48.962;9.182;2023-12-07T04:47:24;22.53;;;12.30;;
19679;SDS011;9989;48.962;9.182;2023-12-07T04:49:50;23.50;;;12.80;;
19679;SDS011;9989;48.962;9.182;2023-12-07T04:52:15;21.63;;;13.00;;
19679;SDS011;9989;48.962;9.182;2023-12-07T04:54:41;24.10;;;13.70;;
19679;SDS011;9989;48.962;9.182;2023-12-07T04:57:07;24.60;;;13.50;;
19679;SDS011;9989;48.962;9.182;2023-12-07T04:59:32;21.73;;;12.77;;
19679;SDS011;9989;48.962;9.182;2023-12-07T05:01:58;23.57;;;13.33;;
19679;SDS011;9989;48.962;9.182;2023-12-07T05:04:23;22.83;;;12.93;;
19679;SDS011;9989;48.962;9.182;2023-12-07T05:06:49;22.33;;;13.30;;
19679;SDS011;9989;48.962;9.182;2023-12-07T05:09:14;25.30;;;14.43;;
19679;SDS011;9989;48.962;9.182;2023-12-07T05:11:40;25.03;;;14.17;;
19679;SDS011;9989;48.962;9.182;2023-12-07T05:14:06;23.73;;;13.67;;
19679;SDS011;9989;48.962;9.182;2023-12-07T05:16:32;25.13;;;13.87;;
19679;SDS011;9989;48.962;9.182;2023-12-07T05:18:58;26.60;;;14.43;;
19679;SDS011;9989;48.962;9.182;2023-12-07T05:21:23;24.73;;;14.00;;
19679;SDS011;9989;48.962;9.182;2023-12-07T05:23:49;27.20;;;14.97;;
19679;SDS011;9989;48.962;9.182;2023-12-07T05:26:15;22.63;;;13.00;;
19679;SDS011;9989;48.962;9.182;2023-12-07T05:28:40;23.57;;;13.43;;
19679;SDS011;9989;48.962;9.182;2023-12-07T05:31:06;23.40;;;13.20;;
19679;SDS011;9989;48.962;9.182;2023-12-07T05:33:32;24.70;;;12.93;;
19679;SDS011;9989;48.962;9.182;2023-12-07T05:35:57;26.80;;;14.40;;
19679;SDS011;9989;48.962;9.182;2023-12-07T05:38:23;25.23;;;14.57;;
19679;SDS011;9989;48.962;9.182;2023-12-07T05:40:49;27.20;;;16.50;;
19679;SDS011;9989;48.962;9.182;2023-12-07T05:43:14;26.43;;;15.50;;
19679;SDS011;9989;48.962;9.182;2023-12-07T05:45:40;26.50;;;16.13;;
19679;SDS011;9989;48.962;9.182;2023-12-07T05:48:06;26.43;;;14.40;;
19679;SDS011;9989;48.962;9.182;2023-12-07T05:50:31;26.47;;;15.37;;
19679;SDS011;9989;48.962;9.182;2023-12-07T05:52:57;31.27;;;15.90;;
19679;SDS011;9989;48.962;9.182;2023-12-07T05:55:22;28.67;;;15.37;;
19679;SDS011;9989;48.962;9.182;2023-12-07T05:57:48;26.27;;;14.37;;
19679;SDS011;9989;48.962;9.182;2023-12-07T06:00:13;27.80;;;14.87;;
19679;SDS011;9989;48.962;9.182;2023-12-07T06:02:41;26.83;;;15.37;;
19679;SDS011;9989;48.962;9.182;2023-12-07T06:05:07;27.97;;;15.57;;
19679;SDS011;9989;48.962;9.182;2023-12-07T06:07:33;26.10;;;15.13;;
19679;SDS011;9989;48.962;9.182;2023-12-07T06:09:58;32.57;;;16.23;;
19679;SDS011;9989;48.962;9.182;2023-12-07T06:12:24;25.50;;;15.17;;
19679;SDS011;9989;48.962;9.182;2023-12-07T06:14:50;29.87;;;17.13;;
19679;SDS011;9989;48.962;9.182;2023-12-07T06:17:15;32.90;;;17.67;;
19679;SDS011;9989;48.962;9.182;2023-12-07T06:19:41;29.93;;;16.83;;
19679;SDS011;9989;48.962;9.182;2023-12-07T06:22:07;30.13;;;16.57;;
19679;SDS011;9989;48.962;9.182;2023-12-07T06:24:33;28.27;;;16.40;;
19679;SDS011;9989;48.962;9.182;2023-12-07T06:26:59;29.90;;;16.90;;
19679;SDS011;9989;48.962;9.182;2023-12-07T06:29:26;32.20;;;18.97;;
19679;SDS011;9989;48.962;9.182;2023-12-07T06:31:52;31.53;;;17.83;;
19679;SDS011;9989;48.962;9.182;2023-12-07T06:34:18;31.50;;;18.60;;
19679;SDS011;9989;48.962;9.182;2023-12-07T06:36:44;28.20;;;17.23;;
19679;SDS011;9989;48.962;9.182;2023-12-07T06:39:10;29.03;;;17.43;;
19679;SDS011;9989;48.962;9.182;2023-12-07T06:41:35;31.27;;;17.97;;
19679;SDS011;9989;48.962;9.182;2023-12-07T06:44:01;27.13;;;16.53;;
19679;SDS011;9989;48.962;9.182;2023-12-07T06:46:27;26.83;;;16.27;;
19679;SDS011;9989;48.962;9.182;2023-12-07T06:48:52;27.83;;;16.03;;
19679;SDS011;9989;48.962;9.182;2023-12-07T06:51:18;29.67;;;15.30;;
19679;SDS011;9989;48.962;9.182;2023-12-07T06:53:43;30.93;;;16.90;;
19679;SDS011;9989;48.962;9.182;2023-12-07T06:56:09;30.50;;;17.27;;
19679;SDS011;9989;48.962;9.182;2023-12-07T06:58:34;25.53;;;15.00;;
19679;SDS011;9989;48.962;9.182;2023-12-07T07:01:00;26.40;;;14.30;;
19679;SDS011;9989;48.962;9.182;2023-12-07T07:03:26;26.40;;;15.40;;
19679;SDS011;9989;48.962;9.182;2023-12-07T07:05:52;27.60;;;15.77;;
19679;SDS011;9989;48.962;9.182;2023-12-07T07:08:19;27.37;;;15.67;;
19679;SDS011;9989;48.962;9.182;2023-12-07T07:10:44;26.43;;;15.50;;
19679;SDS011;9989;48.962;9.182;2023-12-07T07:13:11;26.80;;;15.27;;
19679;SDS011;9989;48.962;9.182;2023-12-07T07:15:41;26.10;;;14.93;;
19679;SDS011;9989;48.962;9.182;2023-12-07T07:18:07;27.00;;;14.60;;
19679;SDS011;9989;48.962;9.182;2023-12-07T07:20:33;25.83;;;14.67;;
19679;SDS011;9989;48.962;9.182;2023-12-07T07:22:59;22.17;;;13.03;;
19679;SDS011;9989;48.962;9.182;2023-12-07T07:25:24;24.13;;;13.87;;
19679;SDS011;9989;48.962;9.182;2023-12-07T07:27:50;25.77;;;14.70;;
19679;SDS011;9989;48.962;9.182;2023-12-07T07:30:17;32.77;;;16.73;;
19679;SDS011;9989;48.962;9.182;2023-12-07T07:32:42;25.17;;;14.53;;
19679;SDS011;9989;48.962;9.182;2023-12-07T07:35:08;23.47;;;13.77;;
19679;SDS011;9989;48.962;9.182;2023-12-07T07:37:36;26.57;;;15.57;;
19679;SDS011;9989;48.962;9.182;2023-12-07T07:40:02;28.10;;;16.53;;
19679;SDS011;9989;48.962;9.182;2023-12-07T07:42:31;26.50;;;15.23;;
19679;SDS011;9989;48.962;9.182;2023-12-07T07:44:57;24.13;;;14.80;;
19679;SDS011;9989;48.962;9.182;2023-12-07T07:47:23;26.77;;;13.17;;
19679;SDS011;9989;48.962;9.182;2023-12-07T07:49:48;21.07;;;12.30;;
19679;SDS011;9989;48.962;9.182;2023-12-07T07:52:14;19.47;;;11.03;;
19679;SDS011;9989;48.962;9.182;2023-12-07T07:54:39;23.13;;;12.50;;
19679;SDS011;9989;48.962;9.182;2023-12-07T07:57:05;17.33;;;10.60;;
19679;SDS011;9989;48.962;9.182;2023-12-07T07:59:31;23.73;;;13.63;;
19679;SDS011;9989;48.962;9.182;2023-12-07T08:01:56;18.60;;;11.57;;
19679;SDS011;9989;48.962;9.182;2023-12-07T08:04:22;18.20;;;10.93;;
19679;SDS011;9989;48.962;9.182;2023-12-07T08:06:48;18.97;;;10.93;;
19679;SDS011;9989;48.962;9.182;2023-12-07T08:09:13;19.20;;;10.97;;
19679;SDS011;9989;48.962;9.182;2023-12-07T08:11:39;18.03;;;10.60;;
19679;SDS011;9989;48.962;9.182;2023-12-07T08:14:05;18.33;;;10.73;;
19679;SDS011;9989;48.962;9.182;2023-12-07T08:16:30;16.40;;;10.67;;
19679;SDS011;9989;48.962;9.182;2023-12-07T08:18:56;16.83;;;11.07;;
19679;SDS011;9989;48.962;9.182;2023-12-07T08:21:23;17.63;;;10.17;;
19679;SDS011;9989;48.962;9.182;2023-12-07T08:23:50;19.30;;;10.50;;
19679;SDS011;9989;48.962;9.182;2023-12-07T08:26:16;15.13;;;10.13;;
19679;SDS011;9989;48.962;9.182;2023-12-07T08:28:42;19.10;;;10.07;;
19679;SDS011;9989;48.962;9.182;2023-12-07T08:31:07;19.37;;;10.40;;
19679;SDS011;9989;48.962;9.182;2023-12-07T08:33:33;14.80;;;9.33;;
19679;SDS011;9989;48.962;9.182;2023-12-07T08:35:59;18.13;;;10.60;;
19679;SDS011;9989;48.962;9.182;2023-12-07T08:38:25;17.10;;;11.43;;
19679;SDS011;9989;48.962;9.182;2023-12-07T08:40:51;18.47;;;12.13;;
19679;SDS011;9989;48.962;9.182;2023-12-07T08:43:20;18.23;;;11.77;;
19679;SDS011;9989;48.962;9.182;2023-12-07T08:45:48;14.47;;;9.33;;
19679;SDS011;9989;48.962;9.182;2023-12-07T08:48:14;16.33;;;9.87;;
19679;SDS011;9989;48.962;9.182;2023-12-07T08:50:39;14.53;;;10.37;;
19679;SDS011;9989;48.962;9.182;2023-12-07T08:53:05;16.37;;;10.83;;
19679;SDS011;9989;48.962;9.182;2023-12-07T08:55:31;17.53;;;11.20;;
19679;SDS011;9989;48.962;9.182;2023-12-07T08:57:57;14.67;;;10.00;;
19679;SDS011;9989;48.962;9.182;2023-12-07T09:00:24;14.73;;;10.03;;
19679;SDS011;9989;48.962;9.182;2023-12-07T09:02:50;14.80;;;10.17;;
19679;SDS011;9989;48.962;9.182;2023-12-07T09:05:17;15.60;;;10.23;;
19679;SDS011;9989;48.962;9.182;2023-12-07T09:07:43;15.20;;;10.03;;
19679;SDS011;9989;48.962;9.182;2023-12-07T09:10:09;15.07;;;10.00;;
19679;SDS011;9989;48.962;9.182;2023-12-07T09:12:35;14.13;;;9.70;;
19679;SDS011;9989;48.962;9.182;2023-12-07T09:15:01;17.50;;;11.17;;
19679;SDS011;9989;48.962;9.182;2023-12-07T09:17:28;17.93;;;10.57;;
19679;SDS011;9989;48.962;9.182;2023-12-07T09:19:53;18.47;;;10.50;;
19679;SDS011;9989;48.962;9.182;2023-12-07T09:22:19;15.43;;;11.30;;
19679;SDS011;9989;48.962;9.182;2023-12-07T09:24:45;19.73;;;12.60;;
19679;SDS011;9989;48.962;9.182;2023-12-07T09:27:11;16.03;;;11.70;;
19679;SDS011;9989;48.962;9.182;2023-12-07T09:29:38;19.77;;;12.87;;
19679;SDS011;9989;48.962;9.182;2023-12-07T09:32:04;19.23;;;12.57;;
19679;SDS011;9989;48.962;9.182;2023-12-07T09:34:31;19.43;;;13.03;;
19679;SDS011;9989;48.962;9.182;2023-12-07T09:37:09;17.30;;;12.90;;
19679;SDS011;9989;48.962;9.182;2023-12-07T09:39:35;17.37;;;11.83;;
19679;SDS011;9989;48.962;9.182;2023-12-07T09:42:01;17.00;;;11.73;;
19679;SDS011;9989;48.962;9.182;2023-12-07T09:44:27;18.23;;;12.13;;
19679;SDS011;9989;48.962;9.182;2023-12-07T09:46:53;17.17;;;11.17;;
19679;SDS011;9989;48.962;9.182;2023-12-07T09:49:19;15.17;;;11.30;;
19679;SDS011;9989;48.962;9.182;2023-12-07T09:51:46;14.33;;;9.80;;
19679;SDS011;9989;48.962;9.182;2023-12-07T09:54:12;14.43;;;10.60;;
19679;SDS011;9989;48.962;9.182;2023-12-07T09:56:38;13.60;;;10.10;;
19679;SDS011;9989;48.962;9.182;2023-12-07T09:59:04;14.20;;;10.67;;
19679;SDS011;9989;48.962;9.182;2023-12-07T10:01:29;14.80;;;10.17;;
19679;SDS011;9989;48.962;9.182;2023-12-07T10:04:15;16.10;;;10.50;;
19679;SDS011;9989;48.962;9.182;2023-12-07T10:06:49;15.00;;;9.83;;
19679;SDS011;9989;48.962;9.182;2023-12-07T10:09:15;14.37;;;9.77;;
19679;SDS011;9989;48.962;9.182;2023-12-07T10:11:41;15.47;;;9.57;;
19679;SDS011;9989;48.962;9.182;2023-12-07T10:14:06;16.73;;;10.17;;
19679;SDS011;9989;48.962;9.182;2023-12-07T10:16:32;15.70;;;10.93;;
19679;SDS011;9989;48.962;9.182;2023-12-07T10:19:13;13.33;;;9.73;;
19679;SDS011;9989;48.962;9.182;2023-12-07T10:21:39;14.07;;;9.47;;
19679;SDS011;9989;48.962;9.182;2023-12-07T10:24:05;12.00;;;8.57;;
19679;SDS011;9989;48.962;9.182;2023-12-07T10:26:31;12.33;;;8.57;;
19679;SDS011;9989;48.962;9.182;2023-12-07T10:28:57;17.63;;;10.50;;
19679;SDS011;9989;48.962;9.182;2023-12-07T10:31:25;13.33;;;9.17;;
19679;SDS011;9989;48.962;9.182;2023-12-07T10:33:51;11.97;;;8.30;;
19679;SDS011;9989;48.962;9.182;2023-12-07T10:36:16;12.40;;;8.03;;
19679;SDS011;9989;48.962;9.182;2023-12-07T10:38:42;14.33;;;9.40;;
19679;SDS011;9989;48.962;9.182;2023-12-07T10:41:10;15.10;;;8.10;;
19679;SDS011;9989;48.962;9.182;2023-12-07T10:43:38;16.03;;;8.53;;
19679;SDS011;9989;48.962;9.182;2023-12-07T10:46:08;12.23;;;8.30;;
19679;SDS011;9989;48.962;9.182;2023-12-07T10:48:34;14.77;;;9.93;;
19679;SDS011;9989;48.962;9.182;2023-12-07T10:51:02;14.23;;;8.90;;
19679;SDS011;9989;48.962;9.182;2023-12-07T10:53:34;15.87;;;9.37;;
19679;SDS011;9989;48.962;9.182;2023-12-07T10:56:05;14.33;;;9.53;;
19679;SDS011;9989;48.962;9.182;2023-12-07T10:58:41;11.80;;;7.80;;
19679;SDS011;9989;48.962;9.182;2023-12-07T11:01:08;12.20;;;8.47;;
19679;SDS011;9989;48.962;9.182;2023-12-07T11:03:34;12.47;;;8.57;;
19679;SDS011;9989;48.962;9.182;2023-12-07T11:06:02;12.63;;;8.63;;
19679;SDS011;9989;48.962;9.182;2023-12-07T11:08:41;12.03;;;8.23;;
19679;SDS011;9989;48.962;9.182;2023-12-07T11:14:09;14.77;;;8.03;;
19679;SDS011;9989;48.962;9.182;2023-12-07T11:16:37;12.63;;;8.40;;
19679;SDS011;9989;48.962;9.182;2023-12-07T11:19:07;13.70;;;8.80;;
19679;SDS011;9989;48.962;9.182;2023-12-07T11:21:54;13.13;;;8.17;;
19679;SDS011;9989;48.962;9.182;2023-12-07T11:24:31;16.13;;;9.00;;
19679;SDS011;9989;48.962;9.182;2023-12-07T11:26:57;12.80;;;8.37;;
19679;SDS011;9989;48.962;9.182;2023-12-07T11:29:28;14.07;;;8.30;;
19679;SDS011;9989;48.962;9.182;2023-12-07T11:32:01;13.57;;;9.20;;
19679;SDS011;9989;48.962;9.182;2023-12-07T11:37:05;13.90;;;9.27;;
19679;SDS011;9989;48.962;9.182;2023-12-07T11:39:35;14.67;;;9.00;;
19679;SDS011;9989;48.962;9.182;2023-12-07T11:42:10;14.47;;;9.30;;
19679;SDS011;9989;48.962;9.182;2023-12-07T11:44:43;12.07;;;8.63;;
19679;SDS011;9989;48.962;9.182;2023-12-07T11:47:17;14.53;;;10.07;;
19679;SDS011;9989;48.962;9.182;2023-12-07T11:49:44;12.77;;;7.80;;
19679;SDS011;9989;48.962;9.182;2023-12-07T11:52:16;12.43;;;7.90;;
19679;SDS011;9989;48.962;9.182;2023-12-07T11:54:46;14.00;;;9.07;;
19679;SDS011;9989;48.962;9.182;2023-12-07T11:57:16;13.77;;;8.37;;
19679;SDS011;9989;48.962;9.182;2023-12-07T11:59:43;11.47;;;7.23;;
19679;SDS011;9989;48.962;9.182;2023-12-07T12:02:13;12.77;;;8.07;;
19679;SDS011;9989;48.962;9.182;2023-12-07T12:04:42;13.27;;;8.63;;
19679;SDS011;9989;48.962;9.182;2023-12-07T12:07:07;12.40;;;7.70;;
19679;SDS011;9989;48.962;9.182;2023-12-07T12:09:33;12.33;;;8.00;;
19679;SDS011;9989;48.962;9.182;2023-12-07T12:11:59;12.07;;;7.37;;
19679;SDS011;9989;48.962;9.182;2023-12-07T12:14:25;10.87;;;6.77;;
19679;SDS011;9989;48.962;9.182;2023-12-07T12:16:52;12.37;;;7.00;;
19679;SDS011;9989;48.962;9.182;2023-12-07T12:19:18;12.23;;;7.53;;
19679;SDS011;9989;48.962;9.182;2023-12-07T12:21:44;11.67;;;7.50;;
19679;SDS011;9989;48.962;9.182;2023-12-07T12:24:11;10.07;;;6.70;;
19679;SDS011;9989;48.962;9.182;2023-12-07T12:26:38;14.07;;;8.57;;
19679;SDS011;9989;48.962;9.182;2023-12-07T12:29:06;12.67;;;7.97;;
19679;SDS011;9989;48.962;9.182;2023-12-07T12:31:33;11.03;;;6.70;;
19679;SDS011;9989;48.962;9.182;2023-12-07T12:34:02;11.53;;;6.47;;
19679;SDS011;9989;48.962;9.182;2023-12-07T12:36:28;10.70;;;6.17;;
19679;SDS011;9989;48.962;9.182;2023-12-07T12:38:54;12.47;;;7.37;;
19679;SDS011;9989;48.962;9.182;2023-12-07T12:41:21;10.63;;;6.63;;
19679;SDS011;9989;48.962;9.182;2023-12-07T12:43:47;10.73;;;6.43;;
19679;SDS011;9989;48.962;9.182;2023-12-07T12:46:14;10.30;;;6.70;;
19679;SDS011;9989;48.962;9.182;2023-12-07T12:51:23;10.50;;;5.77;;
19679;SDS011;9989;48.962;9.182;2023-12-07T12:53:50;11.07;;;6.50;;
19679;SDS011;9989;48.962;9.182;2023-12-07T12:56:16;11.47;;;6.40;;
19679;SDS011;9989;48.962;9.182;2023-12-07T12:58:45;9.50;;;5.27;;
19679;SDS011;9989;48.962;9.182;2023-12-07T13:01:10;12.73;;;6.10;;
19679;SDS011;9989;48.962;9.182;2023-12-07T13:03:36;11.67;;;6.30;;
19679;SDS011;9989;48.962;9.182;2023-12-07T13:06:02;9.03;;;5.67;;
19679;SDS011;9989;48.962;9.182;2023-12-07T13:08:28;9.83;;;5.30;;
19679;SDS011;9989;48.962;9.182;2023-12-07T13:10:53;9.37;;;5.47;;
19679;SDS011;9989;48.962;9.182;2023-12-07T13:13:19;9.07;;;5.57;;
19679;SDS011;9989;48.962;9.182;2023-12-07T13:15:45;11.43;;;5.83;;
19679;SDS011;9989;48.962;9.182;2023-12-07T13:18:11;10.60;;;5.27;;
19679;SDS011;9989;48.962;9.182;2023-12-07T13:20:36;12.63;;;7.00;;
19679;SDS011;9989;48.962;9.182;2023-12-07T13:23:02;10.70;;;6.03;;
19679;SDS011;9989;48.962;9.182;2023-12-07T13:25:28;12.43;;;6.60;;
19679;SDS011;9989;48.962;9.182;2023-12-07T13:27:54;9.07;;;5.43;;
19679;SDS011;9989;48.962;9.182;2023-12-07T13:30:19;9.70;;;5.63;;
19679;SDS011;9989;48.962;9.182;2023-12-07T13:32:45;9.67;;;5.33;;
19679;SDS011;9989;48.962;9.182;2023-12-07T13:35:10;10.53;;;5.77;;
19679;SDS011;9989;48.962;9.182;2023-12-07T13:37:37;10.77;;;5.80;;
19679;SDS011;9989;48.962;9.182;2023-12-07T13:40:03;10.23;;;5.73;;
19679;SDS011;9989;48.962;9.182;2023-12-07T13:42:34;8.97;;;4.63;;
19679;SDS011;9989;48.962;9.182;2023-12-07T13:45:00;8.77;;;5.00;;
19679;SDS011;9989;48.962;9.182;2023-12-07T13:47:27;10.20;;;5.17;;
19679;SDS011;9989;48.962;9.182;2023-12-07T13:50:02;8.80;;;4.97;;
19679;SDS011;9989;48.962;9.182;2023-12-07T13:52:28;7.93;;;4.43;;
19679;SDS011;9989;48.962;9.182;2023-12-07T13:54:54;9.70;;;4.87;;
19679;SDS011;9989;48.962;9.182;2023-12-07T13:57:21;11.17;;;5.13;;
19679;SDS011;9989;48.962;9.182;2023-12-07T13:59:49;10.93;;;5.00;;
19679;SDS011;9989;48.962;9.182;2023-12-07T14:02:15;10.10;;;5.27;;
19679;SDS011;9989;48.962;9.182;2023-12-07T14:04:41;9.77;;;5.23;;
19679;SDS011;9989;48.962;9.182;2023-12-07T14:07:07;9.73;;;4.73;;
19679;SDS011;9989;48.962;9.182;2023-12-07T14:09:34;10.00;;;5.27;;
19679;SDS011;9989;48.962;9.182;2023-12-07T14:11:59;8.73;;;4.60;;
19679;SDS011;9989;48.962;9.182;2023-12-07T14:14:25;9.33;;;5.00;;
19679;SDS011;9989;48.962;9.182;2023-12-07T14:16:50;9.57;;;4.40;;
19679;SDS011;9989;48.962;9.182;2023-12-07T14:19:16;9.63;;;5.20;;
19679;SDS011;9989;48.962;9.182;2023-12-07T14:21:42;9.50;;;4.70;;
19679;SDS011;9989;48.962;9.182;2023-12-07T14:24:08;9.57;;;4.90;;
19679;SDS011;9989;48.962;9.182;2023-12-07T14:26:34;9.60;;;5.00;;
19679;SDS011;9989;48.962;9.182;2023-12-07T14:29:00;9.33;;;5.00;;
19679;SDS011;9989;48.962;9.182;2023-12-07T14:31:26;8.33;;;4.27;;
19679;SDS011;9989;48.962;9.182;2023-12-07T14:33:51;9.43;;;5.20;;
19679;SDS011;9989;48.962;9.182;2023-12-07T14:36:18;9.13;;;5.00;;
19679;SDS011;9989;48.962;9.182;2023-12-07T14:38:44;10.10;;;5.57;;
19679;SDS011;9989;48.962;9.182;2023-12-07T14:41:10;11.57;;;6.00;;
19679;SDS011;9989;48.962;9.182;2023-12-07T14:43:37;13.37;;;5.60;;
19679;SDS011;9989;48.962;9.182;2023-12-07T14:46:05;13.10;;;7.03;;
19679;SDS011;9989;48.962;9.182;2023-12-07T14:48:32;12.07;;;6.50;;